createdAt,value
2019-02-09T00:00:52.097Z,54.60
2019-02-09T00:02:56.333Z,54.90
2019-02-09T00:04:59.967Z,54.60
2019-02-09T00:07:02.879Z,54.50
2019-02-09T00:09:05.897Z,54.60
2019-02-09T00:11:09.530Z,54.60
2019-02-09T00:13:12.547Z,54.50
2019-02-09T00:15:15.438Z,54.50
2019-02-09T00:17:19.084Z,54.50
2019-02-09T00:19:22.419Z,54.50
2019-02-09T00:21:25.536Z,54.50
2019-02-09T00:23:29.208Z,54.60
2019-02-09T00:25:32.478Z,54.50
2019-02-09T00:27:35.383Z,54.50
2019-02-09T00:29:46.076Z,54.80
2019-02-09T00:31:43.091Z,54.40
2019-02-09T00:33:47.175Z,54.30
2019-02-09T00:35:50.047Z,54.30
2019-02-09T00:37:53.061Z,54.30
2019-02-09T00:39:56.045Z,54.30
2019-02-09T00:42:00.432Z,54.40
2019-02-09T00:44:03.362Z,54.40
2019-02-09T00:46:07.134Z,54.40
2019-02-09T00:48:10.025Z,54.40
2019-02-09T00:50:13.037Z,54.30
2019-02-09T00:52:17.150Z,54.50
2019-02-09T00:54:20.031Z,54.50
2019-02-09T00:56:23.593Z,54.60
2019-02-09T00:58:27.291Z,55.40
2019-02-09T01:00:31.606Z,54.70
2019-02-09T01:02:33.972Z,54.70
2019-02-09T01:04:36.971Z,54.70
2019-02-09T01:06:40.616Z,54.80
2019-02-09T01:08:43.797Z,54.70
2019-02-09T01:10:46.704Z,54.70
2019-02-09T01:12:49.592Z,54.70
2019-02-09T01:14:52.810Z,54.70
2019-02-09T01:16:56.627Z,54.60
2019-02-09T01:18:59.531Z,54.60
2019-02-09T01:21:02.562Z,54.60
2019-02-09T01:23:06.987Z,54.60
2019-02-09T01:25:10.635Z,55.30
2019-02-09T01:27:13.718Z,55.10
2019-02-09T01:29:16.964Z,54.50
2019-02-09T01:31:20.682Z,54.60
2019-02-09T01:33:25.181Z,54.70
2019-02-09T01:35:28.867Z,54.90
2019-02-09T01:37:31.742Z,54.80
2019-02-09T01:39:34.655Z,55.00
2019-02-09T01:41:38.305Z,55.30
2019-02-09T01:43:41.207Z,55.20
2019-02-09T01:45:44.503Z,55.30
2019-02-09T01:47:48.157Z,55.90
2019-02-09T01:49:51.036Z,55.50
2019-02-09T01:51:54.279Z,55.60
2019-02-09T01:53:57.998Z,56.10
2019-02-09T01:56:01.474Z,56.10
2019-02-09T01:58:04.543Z,56.40
2019-02-09T02:00:18.009Z,56.90
2019-02-09T02:02:20.929Z,56.90
2019-02-09T02:04:23.939Z,57.10
2019-02-09T02:06:26.823Z,57.40
2019-02-09T02:08:30.427Z,57.90
2019-02-09T02:10:37.923Z,58.20
2019-02-09T02:12:41.568Z,58.80
2019-02-09T02:14:44.778Z,58.80
2019-02-09T02:16:48.327Z,59.00
2019-02-09T02:18:51.995Z,59.50
2019-02-09T02:20:54.973Z,59.50
2019-02-09T02:22:58.703Z,59.80
2019-02-09T02:25:01.636Z,60.10
2019-02-09T02:27:04.703Z,60.30
2019-02-09T02:29:07.623Z,60.50
2019-02-09T02:31:11.405Z,61.00
2019-02-09T02:33:14.303Z,61.00
2019-02-09T02:35:17.708Z,61.20
2019-02-09T02:37:21.967Z,61.60
2019-02-09T02:39:24.898Z,61.50
2019-02-09T02:41:31.660Z,61.60
2019-02-09T02:43:34.637Z,61.80
2019-02-09T02:45:37.539Z,62.10
2019-02-09T02:47:40.482Z,62.30
2019-02-09T02:49:43.404Z,62.50
2019-02-09T02:51:46.315Z,62.70
2019-02-09T02:53:50.028Z,63.10
2019-02-09T02:55:52.957Z,63.10
2019-02-09T02:57:55.982Z,63.40
2019-02-09T02:59:58.935Z,63.50
2019-02-09T03:02:01.871Z,63.70
2019-02-09T03:04:05.066Z,64.00
2019-02-09T03:06:08.115Z,64.20
2019-02-09T03:08:11.815Z,64.60
2019-02-09T03:10:15.619Z,64.80
2019-02-09T03:12:19.745Z,65.00
2019-02-09T03:14:22.658Z,65.00
2019-02-09T03:16:25.569Z,65.20
2019-02-09T03:18:29.295Z,66.40
2019-02-09T03:20:33.095Z,65.80
2019-02-09T03:22:36.775Z,66.20
2019-02-09T03:24:39.702Z,66.10
2019-02-09T03:26:42.624Z,66.30
2019-02-09T03:28:45.590Z,66.50
2019-02-09T03:30:49.208Z,66.60
2019-02-09T03:32:51.478Z,66.80
2019-02-09T03:34:54.396Z,67.00
2019-02-09T03:36:57.336Z,67.10
2019-02-09T03:39:00.356Z,67.10
2019-02-09T03:41:04.153Z,67.30
2019-02-09T03:43:07.152Z,67.20
2019-02-09T03:45:11.002Z,67.40
2019-02-09T03:47:14.807Z,67.60
2019-02-09T03:49:17.751Z,67.50
2019-02-09T03:51:20.671Z,67.60
2019-02-09T03:53:23.605Z,67.60
2019-02-09T03:55:26.547Z,67.70
2019-02-09T03:57:29.467Z,68.50
2019-02-09T03:59:33.151Z,67.80
2019-02-09T04:01:36.969Z,67.90
2019-02-09T04:03:39.934Z,67.80
2019-02-09T04:05:43.636Z,67.90
2019-02-09T04:07:47.336Z,67.90
2019-02-09T04:09:51.005Z,68.00
2019-02-09T04:11:53.935Z,67.90
2019-02-09T04:13:56.891Z,68.00
2019-02-09T04:15:59.882Z,68.10
2019-02-09T04:18:03.684Z,68.80
2019-02-09T04:20:08.071Z,68.30
2019-02-09T04:22:11.050Z,68.20
2019-02-09T04:24:14.791Z,68.30
2019-02-09T04:26:17.710Z,68.30
2019-02-09T04:28:20.646Z,68.40
2019-02-09T04:30:24.656Z,68.50
2019-02-09T04:32:28.333Z,68.70
2019-02-09T04:34:31.250Z,68.60
2019-02-09T04:36:34.198Z,68.70
2019-02-09T04:38:37.892Z,68.90
2019-02-09T04:40:40.844Z,68.70
2019-02-09T04:42:43.769Z,68.80
2019-02-09T04:44:46.737Z,68.80
2019-02-09T04:46:49.887Z,68.90
2019-02-09T04:48:52.788Z,68.80
2019-02-09T04:50:55.816Z,68.80
2019-02-09T04:52:59.530Z,68.90
2019-02-09T04:55:02.453Z,68.80
2019-02-09T04:57:06.096Z,68.90
2019-02-09T04:59:09.914Z,69.10
2019-02-09T05:01:14.295Z,69.20
2019-02-09T05:03:15.823Z,69.30
2019-02-09T05:05:18.849Z,69.50
2019-02-09T05:07:22.527Z,69.70
2019-02-09T05:09:26.238Z,69.80
2019-02-09T05:11:30.053Z,69.90
2019-02-09T05:13:32.976Z,69.80
2019-02-09T05:15:35.926Z,70.00
2019-02-09T05:17:38.849Z,70.10
2019-02-09T05:19:41.776Z,70.20
2019-02-09T05:21:45.598Z,70.40
2019-02-09T05:23:48.587Z,70.40
2019-02-09T05:25:52.230Z,71.10
2019-02-09T05:27:55.528Z,71.40
2019-02-09T05:29:58.447Z,70.80
2019-02-09T05:32:01.390Z,70.90
2019-02-09T05:34:04.333Z,71.00
2019-02-09T05:36:07.243Z,71.00
2019-02-09T05:38:10.717Z,71.20
2019-02-09T05:40:14.405Z,71.30
2019-02-09T05:42:17.316Z,71.40
2019-02-09T05:44:20.267Z,71.40
2019-02-09T05:46:23.300Z,71.50
2019-02-09T05:48:26.429Z,71.50
2019-02-09T05:50:29.821Z,71.70
2019-02-09T05:52:32.747Z,71.80
2019-02-09T05:54:35.767Z,71.80
2019-02-09T05:56:39.582Z,72.00
2019-02-09T05:58:42.495Z,71.90
2019-02-09T06:00:45.433Z,72.00
2019-02-09T06:02:49.346Z,72.20
2019-02-09T06:04:52.267Z,72.10
2019-02-09T06:06:55.201Z,72.20
2019-02-09T06:08:58.941Z,72.20
2019-02-09T06:11:01.861Z,72.20
2019-02-09T06:13:04.868Z,72.20
2019-02-09T06:15:09.366Z,72.30
2019-02-09T06:17:13.052Z,72.30
2019-02-09T06:19:15.987Z,72.30
2019-02-09T06:21:18.931Z,72.20
2019-02-09T06:23:22.622Z,72.20
2019-02-09T06:25:25.553Z,72.20
2019-02-09T06:27:28.614Z,72.20
2019-02-09T06:29:32.301Z,72.30
2019-02-09T06:31:40.512Z,72.30
2019-02-09T06:33:38.199Z,72.30
2019-02-09T06:35:41.115Z,72.40
2019-02-09T06:37:44.313Z,72.30
2019-02-09T06:39:47.378Z,72.40
2019-02-09T06:41:50.295Z,72.40
2019-02-09T06:43:53.207Z,72.40
2019-02-09T06:45:56.149Z,72.40
2019-02-09T06:48:10.894Z,72.30
2019-02-09T06:50:15.690Z,72.30
2019-02-09T06:52:18.748Z,72.20
2019-02-09T06:54:22.428Z,72.10
2019-02-09T06:56:26.567Z,72.80
2019-02-09T06:58:30.359Z,72.00
2019-02-09T07:00:34.051Z,72.00
2019-02-09T07:02:38.503Z,72.00
2019-02-09T07:04:41.418Z,71.90
2019-02-09T07:06:44.343Z,71.80
2019-02-09T07:08:48.144Z,72.00
2019-02-09T07:10:51.807Z,71.90
2019-02-09T07:12:54.778Z,71.90
2019-02-09T07:14:57.727Z,71.80
2019-02-09T07:17:00.651Z,71.80
2019-02-09T07:19:03.629Z,71.70
2019-02-09T07:21:06.570Z,71.60
2019-02-09T07:23:09.598Z,71.50
2019-02-09T07:25:12.602Z,71.50
2019-02-09T07:27:15.556Z,71.30
2019-02-09T07:29:18.471Z,71.20
2019-02-09T07:31:21.408Z,71.10
2019-02-09T07:33:25.107Z,71.00
2019-02-09T07:35:28.024Z,71.00
2019-02-09T07:37:30.933Z,70.90
2019-02-09T07:39:34.663Z,70.90
2019-02-09T07:41:37.579Z,70.90
2019-02-09T07:43:40.495Z,70.70
2019-02-09T07:45:43.450Z,70.60
2019-02-09T07:47:46.398Z,70.50
2019-02-09T07:49:49.325Z,70.40
2019-02-09T07:51:53.315Z,70.20
2019-02-09T07:53:56.318Z,70.10
2019-02-09T07:56:00.058Z,70.10
2019-02-09T07:58:03.019Z,69.90
2019-02-09T08:00:08.687Z,70.00
2019-02-09T08:02:11.594Z,70.00
2019-02-09T08:04:14.918Z,70.10
2019-02-09T08:06:18.599Z,70.40
2019-02-09T08:08:21.546Z,70.30
2019-02-09T08:10:25.314Z,70.40
2019-02-09T08:12:28.986Z,70.90
2019-02-09T08:14:33.452Z,71.00
2019-02-09T08:16:36.357Z,70.90
2019-02-09T08:18:39.537Z,71.00
2019-02-09T08:20:42.346Z,70.90
2019-02-09T08:22:45.273Z,71.00
2019-02-09T08:24:48.219Z,71.00
2019-02-09T08:26:51.346Z,70.90
2019-02-09T08:28:54.259Z,70.80
2019-02-09T08:30:57.178Z,70.70
2019-02-09T08:33:00.165Z,70.70
2019-02-09T08:35:03.852Z,70.60
2019-02-09T08:37:06.955Z,70.40
2019-02-09T08:39:10.762Z,71.00
2019-02-09T08:41:14.462Z,70.10
2019-02-09T08:43:18.187Z,69.80
2019-02-09T08:45:22.396Z,69.80
2019-02-09T08:47:25.330Z,69.70
2019-02-09T08:49:28.340Z,69.50
2019-02-09T08:51:32.056Z,69.20
2019-02-09T08:53:35.023Z,69.20
2019-02-09T08:55:38.703Z,68.60
2019-02-09T08:57:41.640Z,68.60
2019-02-09T08:59:44.574Z,68.40
2019-02-09T09:01:47.484Z,68.30
2019-02-09T09:03:50.672Z,68.10
2019-02-09T09:05:53.588Z,67.90
2019-02-09T09:07:56.520Z,67.70
2019-02-09T09:10:00.237Z,66.40
2019-02-09T09:12:03.138Z,66.30
2019-02-09T09:14:06.060Z,66.20
2019-02-09T09:16:09.065Z,65.90
2019-02-09T09:18:12.067Z,65.60
2019-02-09T09:20:15.956Z,65.50
2019-02-09T09:22:20.167Z,65.50
2019-02-09T09:24:23.852Z,65.50
2019-02-09T09:26:26.766Z,65.50
2019-02-09T09:28:30.895Z,65.90
2019-02-09T09:30:33.839Z,65.70
2019-02-09T09:32:37.519Z,66.10
2019-02-09T09:34:41.250Z,66.10
2019-02-09T09:36:44.178Z,66.00
2019-02-09T09:38:47.101Z,65.90
2019-02-09T09:40:51.022Z,66.00
2019-02-09T09:42:53.971Z,65.90
2019-02-09T09:44:57.662Z,66.00
2019-02-09T09:47:00.617Z,65.80
2019-02-09T09:49:03.551Z,65.70
2019-02-09T09:51:07.253Z,65.70
2019-02-09T09:53:11.071Z,65.60
2019-02-09T09:55:13.991Z,65.40
2019-02-09T09:57:17.011Z,65.40
2019-02-09T09:59:20.744Z,65.50
2019-02-09T10:01:23.660Z,65.50
2019-02-09T10:03:26.566Z,65.60
2019-02-09T10:05:30.290Z,66.50
2019-02-09T10:07:34.068Z,65.60
2019-02-09T10:09:36.986Z,65.70
2019-02-09T10:11:39.934Z,65.60
2019-02-09T10:13:43.622Z,66.30
2019-02-09T10:15:46.543Z,65.40
2019-02-09T10:17:49.490Z,66.00
2019-02-09T10:19:53.295Z,65.00
2019-02-09T10:21:56.209Z,64.90
2019-02-09T10:23:59.180Z,64.80
2019-02-09T10:26:02.985Z,64.80
2019-02-09T10:28:06.784Z,64.80
2019-02-09T10:30:18.879Z,64.90
2019-02-09T10:32:21.967Z,64.80
2019-02-09T10:34:25.667Z,64.80
2019-02-09T10:36:29.411Z,65.00
2019-02-09T10:38:32.452Z,64.90
2019-02-09T10:40:36.154Z,65.40
2019-02-09T10:42:39.854Z,65.60
2019-02-09T10:44:43.666Z,65.70
2019-02-09T10:46:46.599Z,65.60
2019-02-09T10:48:49.551Z,65.60
2019-02-09T10:50:52.464Z,65.70
2019-02-09T10:52:55.409Z,65.60
2019-02-09T10:54:58.490Z,65.60
2019-02-09T10:57:01.433Z,65.50
2019-02-09T10:59:04.343Z,65.40
2019-02-09T11:01:08.332Z,65.20
2019-02-09T11:03:12.019Z,65.20
2019-02-09T11:05:15.715Z,65.20
2019-02-09T11:07:18.766Z,64.70
2019-02-09T11:09:21.715Z,64.70
2019-02-09T11:11:24.629Z,64.70
2019-02-09T11:13:27.876Z,64.50
2019-02-09T11:15:30.959Z,64.40
2019-02-09T11:17:34.635Z,64.20
2019-02-09T11:19:39.095Z,64.20
2019-02-09T11:21:42.016Z,64.10
2019-02-09T11:23:45.048Z,64.10
2019-02-09T11:25:48.862Z,64.00
2019-02-09T11:27:51.787Z,63.80
2019-02-09T11:29:54.812Z,63.70
2019-02-09T11:31:58.615Z,63.40
2019-02-09T11:34:02.304Z,63.50
2019-02-09T11:36:05.239Z,63.40
2019-02-09T11:38:08.193Z,63.50
2019-02-09T11:40:15.447Z,63.40
2019-02-09T11:42:19.138Z,64.20
2019-02-09T11:44:22.264Z,63.30
2019-02-09T11:46:25.710Z,63.40
2019-02-09T11:48:28.212Z,63.50
2019-02-09T11:50:31.929Z,63.50
2019-02-09T11:52:35.593Z,63.50
2019-02-09T11:54:38.510Z,63.50
2019-02-09T11:56:41.716Z,63.50
2019-02-09T11:58:44.626Z,63.50
2019-02-09T12:00:47.567Z,63.50
2019-02-09T12:02:50.530Z,63.60
2019-02-09T12:04:54.214Z,63.60
2019-02-09T12:06:57.186Z,63.60
2019-02-09T12:09:01.652Z,63.90
2019-02-09T12:11:04.569Z,63.80
2019-02-09T12:13:07.543Z,63.90
2019-02-09T12:15:11.479Z,64.80
2019-02-09T12:17:14.434Z,64.20
2019-02-09T12:19:17.326Z,64.30
2019-02-09T12:21:20.374Z,64.40
2019-02-09T12:23:23.298Z,64.30
2019-02-09T12:25:31.642Z,64.40
2019-02-09T12:27:35.774Z,64.30
2019-02-09T12:29:38.704Z,64.20
2019-02-09T12:31:41.630Z,64.20
2019-02-09T12:33:44.696Z,64.30
2019-02-09T12:35:48.471Z,64.40
2019-02-09T12:37:51.394Z,64.30
2019-02-09T12:39:54.363Z,64.50
2019-02-09T12:41:58.078Z,64.30
2019-02-09T12:44:01.014Z,64.20
2019-02-09T12:46:04.232Z,64.00
2019-02-09T12:48:07.411Z,63.90
2019-02-09T12:50:10.146Z,63.70
2019-02-09T12:52:13.094Z,63.60
2019-02-09T12:54:16.038Z,63.40
2019-02-09T12:56:18.971Z,63.10
2019-02-09T12:58:21.958Z,63.00
2019-02-09T13:00:27.707Z,62.90
2019-02-09T13:02:31.050Z,62.70
2019-02-09T13:04:33.855Z,62.60
2019-02-09T13:06:36.784Z,62.50
2019-02-09T13:08:40.062Z,62.40
2019-02-09T13:10:44.281Z,62.30
2019-02-09T13:12:47.311Z,62.30
2019-02-09T13:14:50.995Z,62.20
2019-02-09T13:16:54.743Z,62.90
2019-02-09T13:18:57.694Z,62.10
2019-02-09T13:21:01.396Z,62.20
2019-02-09T13:23:05.305Z,62.20
2019-02-09T13:25:09.024Z,62.20
2019-02-09T13:27:12.039Z,62.00
2019-02-09T13:29:14.986Z,62.00
2019-02-09T13:31:18.734Z,61.90
2019-02-09T13:33:21.751Z,61.90
2019-02-09T13:35:25.482Z,62.00
2019-02-09T13:37:28.422Z,62.00
2019-02-09T13:39:32.111Z,61.70
2019-02-09T13:41:35.077Z,61.70
2019-02-09T13:43:38.001Z,61.60
2019-02-09T13:45:42.583Z,61.50
2019-02-09T13:47:45.518Z,61.40
2019-02-09T13:49:48.450Z,61.40
2019-02-09T13:51:52.882Z,61.20
2019-02-09T13:53:56.703Z,61.10
2019-02-09T13:56:00.374Z,61.00
2019-02-09T13:58:03.387Z,60.90
2019-02-09T14:00:18.395Z,60.80
2019-02-09T14:02:21.395Z,60.70
2019-02-09T14:04:24.838Z,60.60
2019-02-09T14:06:27.848Z,60.50
2019-02-09T14:08:30.772Z,60.40
2019-02-09T14:10:33.687Z,60.30
2019-02-09T14:12:36.630Z,60.20
2019-02-09T14:14:39.552Z,60.20
2019-02-09T14:16:42.474Z,60.00
2019-02-09T14:18:45.504Z,60.00
2019-02-09T14:20:49.202Z,60.60
2019-02-09T14:22:52.895Z,59.90
2019-02-09T14:24:56.722Z,59.90
2019-02-09T14:26:59.638Z,59.70
2019-02-09T14:29:02.565Z,59.80
2019-02-09T14:31:06.277Z,59.80
2019-02-09T14:33:09.999Z,59.70
2019-02-09T14:35:12.916Z,59.70
2019-02-09T14:37:15.891Z,59.70
2019-02-09T14:39:18.802Z,59.70
2019-02-09T14:41:22.487Z,59.80
2019-02-09T14:43:25.435Z,59.70
2019-02-09T14:45:31.230Z,59.80
2019-02-09T14:47:34.148Z,59.90
2019-02-09T14:49:38.031Z,60.00
2019-02-09T14:51:41.723Z,60.00
2019-02-09T14:53:45.414Z,60.90
2019-02-09T14:55:48.375Z,60.10
2019-02-09T14:57:51.296Z,60.10
2019-02-09T14:59:54.970Z,60.40
2019-02-09T15:01:57.937Z,60.20
2019-02-09T15:04:02.909Z,60.40
2019-02-09T15:06:03.899Z,60.40
2019-02-09T15:08:07.438Z,60.40
2019-02-09T15:10:11.874Z,60.60
2019-02-09T15:12:14.799Z,60.60
2019-02-09T15:14:17.869Z,60.60
2019-02-09T15:16:21.564Z,60.60
2019-02-09T15:18:24.481Z,60.70
2019-02-09T15:20:30.997Z,61.60
2019-02-09T15:22:33.903Z,60.80
2019-02-09T15:24:36.832Z,60.80
2019-02-09T15:26:40.558Z,61.60
2019-02-09T15:28:43.471Z,60.70
2019-02-09T15:30:46.499Z,60.70
2019-02-09T15:32:50.216Z,60.90
2019-02-09T15:34:53.197Z,60.80
2019-02-09T15:36:56.116Z,60.90
2019-02-09T15:38:59.271Z,60.90
2019-02-09T15:41:02.187Z,61.00
2019-02-09T15:43:05.100Z,61.10
2019-02-09T15:45:09.759Z,61.40
2019-02-09T15:47:12.676Z,61.90
2019-02-09T15:49:15.702Z,61.20
2019-02-09T15:51:19.826Z,61.30
2019-02-09T15:53:22.751Z,61.30
2019-02-09T15:55:25.777Z,61.40
2019-02-09T15:57:29.507Z,61.70
2019-02-09T15:59:32.429Z,61.60
2019-02-09T16:01:35.365Z,61.80
2019-02-09T16:03:38.443Z,61.80
2019-02-09T16:05:41.371Z,61.90
2019-02-09T16:07:44.296Z,61.90
2019-02-09T16:09:47.255Z,62.00
2019-02-09T16:11:50.174Z,62.10
2019-02-09T16:13:53.086Z,62.30
2019-02-09T16:15:56.222Z,62.50
2019-02-09T16:17:59.895Z,63.00
2019-02-09T16:20:02.904Z,62.90
2019-02-09T16:22:06.605Z,63.50
2019-02-09T16:24:10.273Z,63.80
2019-02-09T16:26:13.286Z,63.70
2019-02-09T16:28:16.997Z,64.40
2019-02-09T16:30:23.438Z,64.60
2019-02-09T16:32:27.130Z,65.00
2019-02-09T16:34:31.670Z,65.20
2019-02-09T16:36:35.385Z,65.30
2019-02-09T16:38:39.516Z,65.30
2019-02-09T16:40:41.263Z,65.40
2019-02-09T16:42:44.195Z,65.70
2019-02-09T16:44:47.200Z,65.90
2019-02-09T16:46:51.005Z,66.10
2019-02-09T16:48:54.787Z,66.10
2019-02-09T16:50:57.787Z,66.00
2019-02-09T16:53:01.592Z,65.80
2019-02-09T16:55:05.367Z,65.60
2019-02-09T16:57:08.287Z,65.60
2019-02-09T16:59:11.373Z,65.50
2019-02-09T17:01:14.293Z,65.40
2019-02-09T17:03:17.326Z,65.30
2019-02-09T17:05:21.055Z,65.20
2019-02-09T17:07:23.969Z,65.00
2019-02-09T17:09:26.879Z,65.80
2019-02-09T17:11:29.977Z,65.20
2019-02-09T17:13:33.776Z,65.40
2019-02-09T17:15:36.702Z,65.30
2019-02-09T17:17:43.326Z,65.70
2019-02-09T17:19:46.327Z,65.60
2019-02-09T17:21:49.247Z,65.70
2019-02-09T17:23:52.396Z,65.90
2019-02-09T17:25:55.318Z,66.00
2019-02-09T17:27:58.344Z,66.20
2019-02-09T17:30:02.063Z,66.30
2019-02-09T17:32:04.978Z,66.50
2019-02-09T17:34:08.013Z,66.40
2019-02-09T17:36:11.741Z,66.70
2019-02-09T17:38:14.667Z,66.70
2019-02-09T17:40:26.412Z,67.40
2019-02-09T17:42:29.465Z,67.00
2019-02-09T17:44:33.154Z,67.10
2019-02-09T17:46:36.853Z,67.20
2019-02-09T17:48:39.897Z,67.20
2019-02-09T17:50:42.932Z,67.90
2019-02-09T17:52:46.621Z,67.40
2019-02-09T17:54:50.435Z,67.40
2019-02-09T17:56:54.239Z,67.50
2019-02-09T17:58:57.928Z,67.40
2019-02-09T18:01:05.170Z,67.50
2019-02-09T18:03:08.083Z,68.40
2019-02-09T18:05:11.003Z,67.40
2019-02-09T18:07:14.073Z,68.40
2019-02-09T18:09:17.750Z,68.40
2019-02-09T18:11:21.435Z,68.50
2019-02-09T18:13:24.383Z,68.40
2019-02-09T18:15:27.305Z,68.40
2019-02-09T18:17:30.315Z,68.40
2019-02-09T18:19:34.134Z,68.50
2019-02-09T18:21:37.041Z,68.40
2019-02-09T18:23:39.961Z,68.40
2019-02-09T18:25:43.095Z,68.40
2019-02-09T18:27:46.013Z,68.40
2019-02-09T18:29:49.033Z,68.40
2019-02-09T18:31:52.746Z,68.30
2019-02-09T18:33:55.670Z,68.20
2019-02-09T18:35:58.573Z,68.20
2019-02-09T18:38:01.511Z,68.10
2019-02-09T18:40:23.424Z,68.10
2019-02-09T18:42:26.339Z,68.00
2019-02-09T18:44:29.295Z,67.80
2019-02-09T18:46:32.218Z,67.80
2019-02-09T18:48:35.236Z,67.70
2019-02-09T18:50:39.041Z,67.80
2019-02-09T18:52:41.959Z,67.70
2019-02-09T18:54:44.887Z,67.70
2019-02-09T18:56:48.166Z,67.60
2019-02-09T18:58:51.094Z,67.60
2019-02-09T19:00:54.012Z,67.60
2019-02-09T19:02:57.028Z,67.50
2019-02-09T19:05:04.417Z,67.50
2019-02-09T19:07:04.420Z,67.40
2019-02-09T19:09:08.142Z,68.10
2019-02-09T19:11:11.822Z,67.40
2019-02-09T19:13:15.506Z,67.30
2019-02-09T19:15:18.454Z,67.30
2019-02-09T19:17:21.378Z,67.30
2019-02-09T19:19:25.070Z,67.20
2019-02-09T19:21:28.247Z,67.20
2019-02-09T19:23:31.157Z,67.00
2019-02-09T19:25:34.064Z,67.00
2019-02-09T19:27:37.155Z,66.90
2019-02-09T19:29:40.152Z,66.90
2019-02-09T19:31:43.103Z,66.80
2019-02-09T19:33:47.228Z,66.80
2019-02-09T19:35:50.143Z,66.70
2019-02-09T19:37:54.022Z,66.70
2019-02-09T19:39:56.420Z,66.70
2019-02-09T19:41:59.343Z,66.60
2019-02-09T19:44:02.328Z,66.60
2019-02-09T19:46:06.039Z,66.60
2019-02-09T19:48:08.973Z,66.50
2019-02-09T19:50:11.895Z,66.60
2019-02-09T19:52:15.953Z,66.40
2019-02-09T19:54:18.989Z,66.40
2019-02-09T19:56:22.689Z,66.50
2019-02-09T19:58:26.407Z,66.50
2019-02-09T20:00:31.244Z,66.50
2019-02-09T20:02:34.157Z,66.50
2019-02-09T20:04:37.946Z,66.40
2019-02-09T20:06:40.879Z,66.40
2019-02-09T20:08:44.682Z,66.40
2019-02-09T20:10:48.688Z,66.50
2019-02-09T20:12:52.364Z,66.50
2019-02-09T20:14:55.283Z,66.40
2019-02-09T20:16:58.223Z,67.20
2019-02-09T20:19:01.303Z,66.50
2019-02-09T20:21:04.212Z,66.50
2019-02-09T20:23:07.160Z,66.50
2019-02-09T20:25:10.140Z,66.60
2019-02-09T20:27:13.059Z,66.60
2019-02-09T20:29:16.790Z,66.60
2019-02-09T20:31:19.768Z,66.60
2019-02-09T20:33:22.701Z,66.60
2019-02-09T20:35:27.696Z,66.60
2019-02-09T20:37:29.401Z,66.70
2019-02-09T20:39:33.082Z,67.00
2019-02-09T20:41:36.505Z,66.60
2019-02-09T20:43:40.174Z,66.60
2019-02-09T20:45:43.884Z,66.60
2019-02-09T20:47:49.743Z,66.50
2019-02-09T20:49:50.159Z,66.60
2019-02-09T20:51:53.854Z,66.60
2019-02-09T20:53:56.806Z,66.60
2019-02-09T20:55:59.742Z,66.50
2019-02-09T20:58:03.447Z,66.60
2019-02-09T21:00:18.441Z,66.60
2019-02-09T21:02:19.947Z,66.50
2019-02-09T21:04:23.637Z,66.60
2019-02-09T21:06:27.457Z,66.60
2019-02-09T21:08:31.151Z,66.60
2019-02-09T21:10:38.335Z,66.60
2019-02-09T21:12:41.288Z,66.50
2019-02-09T21:14:44.222Z,66.50
2019-02-09T21:16:51.709Z,66.60
2019-02-09T21:18:50.182Z,66.60
2019-02-09T21:20:53.118Z,66.60
2019-02-09T21:22:56.053Z,66.60
2019-02-09T21:24:58.986Z,66.60
2019-02-09T21:27:03.418Z,66.60
2019-02-09T21:29:07.847Z,66.50
2019-02-09T21:31:12.469Z,66.80
2019-02-09T21:33:16.140Z,66.60
2019-02-09T21:35:19.815Z,66.40
2019-02-09T21:37:22.958Z,66.40
2019-02-09T21:39:32.757Z,66.50
2019-02-09T21:41:29.591Z,66.50
2019-02-09T21:43:33.363Z,66.60
2019-02-09T21:45:36.295Z,66.50
2019-02-09T21:47:39.305Z,66.50
2019-02-09T21:49:43.227Z,66.60
2019-02-09T21:51:46.156Z,66.50
2019-02-09T21:53:49.725Z,66.60
2019-02-09T21:55:52.782Z,66.50
2019-02-09T21:57:56.526Z,66.60
2019-02-09T21:59:59.452Z,66.60
2019-02-09T22:02:03.272Z,66.50
2019-02-09T22:04:06.203Z,66.40
2019-02-09T22:06:09.127Z,66.40
2019-02-09T22:08:19.248Z,66.30
2019-02-09T22:10:29.221Z,66.30
2019-02-09T22:12:28.943Z,66.30
2019-02-09T22:14:31.954Z,66.20
2019-02-09T22:16:36.824Z,66.20
2019-02-09T22:18:38.371Z,66.20
2019-02-09T22:20:41.262Z,66.20
2019-02-09T22:22:45.033Z,66.80
2019-02-09T22:24:47.972Z,66.20
2019-02-09T22:26:50.974Z,66.20
2019-02-09T22:28:53.898Z,66.10
2019-02-09T22:30:57.818Z,66.10
2019-02-09T22:33:00.940Z,66.10
2019-02-09T22:35:03.747Z,66.10
2019-02-09T22:37:07.223Z,66.10
2019-02-09T22:39:10.195Z,66.00
2019-02-09T22:41:13.120Z,66.00
2019-02-09T22:43:16.042Z,66.00
2019-02-09T22:45:19.627Z,66.00
2019-02-09T22:47:22.606Z,66.00
2019-02-09T22:49:26.408Z,66.00
2019-02-09T22:51:30.209Z,66.00
2019-02-09T22:53:33.882Z,66.00
2019-02-09T22:55:36.893Z,65.90
2019-02-09T22:57:40.798Z,66.00
2019-02-09T22:59:44.490Z,66.00
2019-02-09T23:01:48.170Z,65.90
2019-02-09T23:04:06.715Z,65.90
2019-02-09T23:06:29.361Z,65.90
2019-02-09T23:08:34.052Z,66.40
2019-02-09T23:10:36.892Z,65.70
2019-02-09T23:12:48.155Z,65.70
2019-02-09T23:14:43.634Z,65.70
2019-02-09T23:16:46.598Z,65.70
2019-02-09T23:18:49.520Z,65.70
2019-02-09T23:20:53.358Z,65.70
2019-02-09T23:22:56.307Z,65.60
2019-02-09T23:24:59.994Z,65.60
2019-02-09T23:27:03.708Z,65.10
2019-02-09T23:29:07.527Z,65.50
2019-02-09T23:31:11.214Z,65.50
2019-02-09T23:33:14.126Z,65.40
2019-02-09T23:35:17.197Z,65.40
2019-02-09T23:37:20.127Z,65.30
2019-02-09T23:39:23.047Z,66.00
2019-02-09T23:41:26.882Z,65.30
2019-02-09T23:43:29.843Z,65.20
2019-02-09T23:45:33.526Z,65.10
2019-02-09T23:47:37.250Z,65.20
2019-02-09T23:49:40.195Z,65.20
2019-02-09T23:51:43.110Z,65.10
2019-02-09T23:53:46.071Z,64.90
2019-02-09T23:55:49.761Z,64.90
2019-02-09T23:57:53.458Z,65.60
2019-02-09T23:59:56.421Z,64.80
